Time;durP1;ratioP1;P1;durP2;ratioP2;P2;SDS_P1;SDS_P2;PMS_P1;PMS_P2;Temp;Humidity;BMP_temperature;BMP_pressure;BME280_temperature;BME280_humidity;BME280_pressure;Samples;Min_cycle;Max_cycle;Signal;HPM_P1;HPM_P2
2022/10/20 00:00:11;;;;;;;5.15;3.92;;;21.50;67.40;;;;;;4954181;28;93392;-81
2022/10/20 00:02:37;;;;;;;4.70;3.75;;;21.50;67.50;;;;;;4953047;28;92381;-81
2022/10/20 00:05:03;;;;;;;4.20;3.80;;;21.50;67.50;;;;;;4955358;28;92030;-81
2022/10/20 00:07:29;;;;;;;4.82;4.30;;;21.50;67.50;;;;;;4954350;28;95005;-81
2022/10/20 00:09:54;;;;;;;4.25;3.63;;;21.50;67.50;;;;;;4954406;28;93319;-80
2022/10/20 00:12:20;;;;;;;5.53;3.75;;;21.60;67.50;;;;;;4952948;28;92688;-81
2022/10/20 00:14:45;;;;;;;5.55;4.38;;;21.50;67.40;;;;;;4954796;28;93328;-81
2022/10/20 00:17:11;;;;;;;8.27;3.83;;;21.50;67.40;;;;;;4955869;28;93009;-80
2022/10/20 00:19:36;;;;;;;4.70;3.47;;;21.50;67.50;;;;;;4955652;28;92245;-81
2022/10/20 00:22:02;;;;;;;5.22;4.05;;;21.50;67.50;;;;;;4955152;28;92499;-80
2022/10/20 00:24:28;;;;;;;4.60;3.67;;;21.50;67.40;;;;;;4952470;28;93703;-81
2022/10/20 00:26:53;;;;;;;6.05;3.83;;;21.50;67.40;;;;;;4952238;28;93866;-81
2022/10/20 00:29:19;;;;;;;4.93;4.15;;;21.50;67.50;;;;;;4955687;28;92428;-81
2022/10/20 00:31:44;;;;;;;4.55;3.53;;;21.50;67.60;;;;;;4955445;28;92141;-81
2022/10/20 00:34:10;;;;;;;5.25;3.75;;;21.50;67.70;;;;;;4952958;28;92608;-80
2022/10/20 00:36:35;;;;;;;5.75;4.05;;;21.50;67.70;;;;;;4955799;28;93306;-81
2022/10/20 00:39:03;;;;;;;5.82;4.40;;;21.40;67.60;;;;;;4954566;28;92344;-81
2022/10/20 00:41:29;;;;;;;4.57;3.65;;;21.40;67.40;;;;;;4953449;28;91825;-81
2022/10/20 00:44:00;;;;;;;4.80;3.80;;;21.40;67.60;;;;;;4954990;28;94211;-81
2022/10/20 00:46:32;;;;;;;4.53;3.80;;;21.40;67.40;;;;;;4955472;28;93473;-81
2022/10/20 00:49:01;;;;;;;7.00;4.25;;;21.40;67.50;;;;;;4956525;28;93079;-81
2022/10/20 00:51:29;;;;;;;5.70;3.90;;;21.40;67.40;;;;;;4954484;28;92562;-81
2022/10/20 00:54:02;;;;;;;5.10;4.03;;;21.40;67.50;;;;;;4956992;28;93337;-81
2022/10/20 00:56:28;;;;;;;4.90;4.03;;;21.40;67.30;;;;;;4955862;28;92851;-81
2022/10/20 00:58:54;;;;;;;5.47;3.47;;;21.40;67.30;;;;;;4954132;28;92339;-80
2022/10/20 01:01:20;;;;;;;5.50;4.05;;;21.40;67.30;;;;;;4955074;28;92673;-81
2022/10/20 01:03:49;;;;;;;5.72;3.83;;;21.40;67.30;;;;;;4952914;28;97156;-81
2022/10/20 01:06:17;;;;;;;4.68;3.70;;;21.40;67.40;;;;;;4956066;28;92866;-81
2022/10/20 01:08:43;;;;;;;5.25;4.13;;;21.30;67.50;;;;;;4955061;28;92532;-81
2022/10/20 01:11:18;;;;;;;3.83;3.35;;;21.40;67.50;;;;;;4954752;28;92865;-81
2022/10/20 01:14:08;;;;;;;4.72;3.95;;;21.40;67.40;;;;;;4951948;28;96207;-81
2022/10/20 01:16:54;;;;;;;6.05;4.30;;;21.30;67.40;;;;;;4954393;28;94059;-81
2022/10/20 01:20:01;;;;;;;4.10;3.65;;;21.30;67.40;;;;;;4955163;28;91980;-81
2022/10/20 01:23:03;;;;;;;5.25;3.83;;;21.30;67.40;;;;;;4911133;28;92721;-81
2022/10/20 01:25:39;;;;;;;4.40;3.75;;;21.40;67.30;;;;;;4913111;28;93417;-81
2022/10/20 01:28:33;;;;;;;4.80;4.07;;;21.40;67.30;;;;;;4913198;28;93742;-81
2022/10/20 01:31:03;;;;;;;4.13;3.58;;;21.30;67.20;;;;;;4872806;28;92313;-81
2022/10/20 01:33:48;;;;;;;4.53;3.70;;;21.30;67.30;;;;;;4873191;28;91474;-81
2022/10/20 01:36:29;;;;;;;4.90;3.80;;;21.30;67.40;;;;;;4874492;28;93331;-81
2022/10/20 01:39:03;;;;;;;4.68;3.50;;;21.30;67.30;;;;;;4872073;28;92693;-81
2022/10/20 01:41:33;;;;;;;4.13;3.63;;;21.30;67.40;;;;;;4873166;28;93759;-81
2022/10/20 01:44:05;;;;;;;7.28;4.25;;;21.30;67.60;;;;;;4872076;28;92504;-81
2022/10/20 01:46:32;;;;;;;5.28;4.00;;;21.30;67.50;;;;;;4872053;28;93284;-81
2022/10/20 01:49:00;;;;;;;4.05;3.50;;;21.20;67.60;;;;;;4874947;28;92922;-81
2022/10/20 01:51:26;;;;;;;4.22;3.38;;;21.20;67.60;;;;;;4873289;28;92943;-81
2022/10/20 01:53:52;;;;;;;4.25;3.72;;;21.20;67.60;;;;;;4873849;28;92555;-82
2022/10/20 01:56:25;;;;;;;5.50;3.70;;;21.20;67.50;;;;;;4872394;28;92767;-81
2022/10/20 01:58:53;;;;;;;4.43;3.55;;;21.20;67.50;;;;;;4877617;28;92305;-82
2022/10/20 02:01:36;;;;;;;5.93;3.83;;;21.20;67.60;;;;;;4894568;28;92586;-82
2022/10/20 02:04:05;;;;;;;3.90;3.50;;;21.20;67.40;;;;;;4891951;28;92606;-81
2022/10/20 02:07:00;;;;;;;5.60;4.03;;;21.20;67.30;;;;;;4893760;28;96081;-81
2022/10/20 02:09:42;;;;;;;4.07;3.45;;;21.20;67.60;;;;;;4952617;28;94362;-81
2022/10/20 02:12:30;;;;;;;4.47;3.90;;;21.20;67.40;;;;;;4953789;28;92615;-81
2022/10/20 02:14:56;;;;;;;4.80;3.93;;;21.20;67.30;;;;;;4956280;28;92327;-81
2022/10/20 02:17:22;;;;;;;4.53;3.42;;;21.20;67.40;;;;;;4950743;28;94467;-82
2022/10/20 02:19:50;;;;;;;4.22;3.70;;;21.20;67.60;;;;;;4953357;28;92878;-81
2022/10/20 02:22:18;;;;;;;4.43;3.47;;;21.20;67.50;;;;;;4955640;28;92553;-81
2022/10/20 02:24:44;;;;;;;3.80;3.40;;;21.20;67.50;;;;;;4956045;28;91952;-81
2022/10/20 02:27:16;;;;;;;4.22;3.80;;;21.20;67.50;;;;;;4953460;28;93621;-81
2022/10/20 02:29:59;;;;;;;4.35;3.50;;;21.10;67.30;;;;;;4954023;28;92816;-81
2022/10/20 02:32:26;;;;;;;4.00;3.45;;;21.10;67.60;;;;;;4949969;28;93142;-81
2022/10/20 02:34:51;;;;;;;4.63;3.55;;;21.10;67.60;;;;;;4955209;28;92009;-81
2022/10/20 02:37:17;;;;;;;4.47;3.55;;;21.10;67.60;;;;;;4950735;28;94919;-81
2022/10/20 02:39:43;;;;;;;4.05;3.40;;;21.10;67.50;;;;;;4952516;28;93220;-81
2022/10/20 02:42:10;;;;;;;3.88;3.47;;;21.10;67.40;;;;;;4952949;28;92441;-81
2022/10/20 02:44:36;;;;;;;4.53;3.13;;;21.10;67.50;;;;;;4951321;28;92449;-81
2022/10/20 02:47:02;;;;;;;4.57;3.80;;;21.10;67.50;;;;;;4950563;28;96360;-82
2022/10/20 02:49:28;;;;;;;4.53;3.63;;;21.10;67.40;;;;;;4953608;28;92757;-82
2022/10/20 02:51:53;;;;;;;3.50;3.20;;;21.10;67.30;;;;;;4950813;28;92293;-82
2022/10/20 02:54:19;;;;;;;3.55;3.25;;;21.10;67.30;;;;;;4957184;28;91982;-82
2022/10/20 02:56:45;;;;;;;3.63;3.17;;;21.10;67.20;;;;;;4952687;28;93452;-81
2022/10/20 02:59:15;;;;;;;4.93;3.72;;;21.10;67.20;;;;;;4952587;28;94151;-82
2022/10/20 03:01:42;;;;;;;4.57;3.53;;;21.10;67.20;;;;;;4952948;28;92743;-82
2022/10/20 03:04:07;;;;;;;3.58;3.28;;;21.10;67.30;;;;;;4958069;28;92377;-81
2022/10/20 03:06:33;;;;;;;4.05;3.40;;;21.10;67.40;;;;;;4955512;28;92539;-82
2022/10/20 03:08:59;;;;;;;3.80;3.50;;;21.10;67.40;;;;;;4956904;28;93035;-81
2022/10/20 03:11:24;;;;;;;4.38;3.45;;;21.10;67.30;;;;;;4958136;28;92702;-82
2022/10/20 03:13:50;;;;;;;4.15;3.75;;;21.00;67.20;;;;;;4958739;28;91629;-81
2022/10/20 03:16:15;;;;;;;4.00;3.15;;;21.10;67.20;;;;;;4955957;28;92563;-82
2022/10/20 03:18:41;;;;;;;4.47;3.47;;;21.10;67.40;;;;;;4957562;28;94506;-82
2022/10/20 03:21:07;;;;;;;3.78;3.42;;;21.10;67.30;;;;;;4955147;28;93688;-82
2022/10/20 03:23:32;;;;;;;4.05;3.38;;;21.10;67.30;;;;;;4955499;28;92012;-82
2022/10/20 03:26:03;;;;;;;3.95;3.55;;;21.00;67.10;;;;;;4953678;28;92297;-82
2022/10/20 03:28:29;;;;;;;4.90;3.83;;;21.00;67.20;;;;;;4956906;28;92959;-82
2022/10/20 03:30:55;;;;;;;4.53;3.80;;;21.00;67.10;;;;;;4955167;28;92570;-82
2022/10/20 03:33:21;;;;;;;3.83;3.42;;;21.00;67.10;;;;;;4956957;28;92380;-81
2022/10/20 03:35:46;;;;;;;3.40;3.10;;;21.00;67.30;;;;;;4954822;28;93116;-81
2022/10/20 03:38:12;;;;;;;3.33;3.03;;;21.00;67.00;;;;;;4955680;28;94189;-81
2022/10/20 03:40:37;;;;;;;3.28;2.97;;;21.00;67.20;;;;;;4954902;28;92591;-81
2022/10/20 03:43:03;;;;;;;3.58;3.05;;;21.00;67.20;;;;;;4957981;28;92641;-81
2022/10/20 03:45:29;;;;;;;4.18;3.45;;;21.00;67.20;;;;;;4951072;28;94139;-81
2022/10/20 03:47:55;;;;;;;3.55;3.25;;;21.00;67.30;;;;;;4955648;28;93172;-81
2022/10/20 03:50:20;;;;;;;8.70;3.50;;;21.00;67.40;;;;;;4955032;28;92464;-81
2022/10/20 03:52:49;;;;;;;3.80;3.22;;;21.00;67.30;;;;;;4954574;28;92547;-82
2022/10/20 03:55:17;;;;;;;5.30;3.05;;;21.00;67.40;;;;;;4955328;28;93551;-81
2022/10/20 03:57:42;;;;;;;3.63;3.28;;;21.00;67.40;;;;;;4954052;28;92536;-82
2022/10/20 04:00:08;;;;;;;3.90;3.50;;;21.00;67.30;;;;;;4956421;28;92158;-81
2022/10/20 04:02:37;;;;;;;3.97;3.58;;;21.00;67.50;;;;;;4955474;28;91597;-81
2022/10/20 04:05:04;;;;;;;3.90;3.30;;;21.00;67.40;;;;;;4953889;28;93133;-81
2022/10/20 04:07:30;;;;;;;3.78;3.42;;;21.00;67.50;;;;;;4955912;28;94851;-81
2022/10/20 04:09:55;;;;;;;4.72;3.60;;;20.90;67.30;;;;;;4955225;28;93196;-81
2022/10/20 04:12:21;;;;;;;4.05;3.65;;;20.90;67.40;;;;;;4955293;28;92609;-81
2022/10/20 04:14:47;;;;;;;4.40;3.28;;;20.90;67.40;;;;;;4957416;28;93507;-81
2022/10/20 04:17:13;;;;;;;3.40;3.05;;;20.90;67.40;;;;;;4955220;28;93304;-81
2022/10/20 04:19:39;;;;;;;3.90;3.10;;;20.90;67.30;;;;;;4956070;28;92115;-81
2022/10/20 04:22:04;;;;;;;4.15;3.30;;;20.90;67.40;;;;;;4954609;28;92053;-81
2022/10/20 04:24:30;;;;;;;3.63;3.30;;;20.90;67.30;;;;;;4956349;28;92635;-82
2022/10/20 04:26:56;;;;;;;3.92;3.20;;;20.90;67.40;;;;;;4953126;28;94424;-81
2022/10/20 04:29:21;;;;;;;4.00;3.47;;;20.90;67.40;;;;;;4957150;28;93296;-81
2022/10/20 04:31:47;;;;;;;4.88;3.47;;;20.90;67.50;;;;;;4954029;28;92289;-81
2022/10/20 04:34:12;;;;;;;3.55;3.10;;;20.90;67.30;;;;;;4954493;28;95963;-81
2022/10/20 04:36:38;;;;;;;4.10;3.33;;;20.90;67.20;;;;;;4957842;28;94064;-81
2022/10/20 04:39:07;;;;;;;3.53;3.15;;;20.90;67.20;;;;;;4954176;28;92042;-81
2022/10/20 04:41:33;;;;;;;;;;;20.90;67.30;;;;;;4956967;28;92739;-81
2022/10/20 04:43:58;;;;;;;3.72;3.10;;;20.90;67.10;;;;;;4955027;28;93352;-81
2022/10/20 04:46:25;;;;;;;3.40;3.00;;;20.90;67.20;;;;;;4955249;28;92767;-82
2022/10/20 04:48:52;;;;;;;3.35;3.05;;;20.90;67.20;;;;;;4953609;28;93003;-82
2022/10/20 04:51:18;;;;;;;3.40;2.83;;;20.90;67.10;;;;;;4954908;28;91619;-82
2022/10/20 04:53:43;;;;;;;3.47;3.17;;;20.90;67.20;;;;;;4954956;28;92877;-82
2022/10/20 04:56:13;;;;;;;3.75;3.08;;;20.90;67.40;;;;;;4953054;28;92921;-82
2022/10/20 04:58:38;;;;;;;;;;;20.90;67.20;;;;;;4953818;28;93652;-82
2022/10/20 05:01:07;;;;;;;4.10;3.15;;;20.90;67.20;;;;;;4955080;28;92727;-82
2022/10/20 05:03:33;;;;;;;3.37;3.00;;;20.90;67.20;;;;;;4954672;28;94055;-81
2022/10/20 05:06:20;;;;;;;2.65;2.45;;;20.90;67.20;;;;;;4951700;28;92685;-82
2022/10/20 05:08:48;;;;;;;3.75;3.15;;;20.90;67.20;;;;;;4954967;28;92481;-81
2022/10/20 05:11:15;;;;;;;3.65;2.90;;;20.90;67.20;;;;;;4953689;28;92568;-81
2022/10/20 05:13:41;;;;;;;3.03;2.72;;;20.90;67.30;;;;;;4953746;28;92988;-82
2022/10/20 05:16:08;;;;;;;3.25;2.95;;;20.90;67.40;;;;;;4956192;28;93259;-81
2022/10/20 05:18:34;;;;;;;4.97;3.90;;;20.90;67.30;;;;;;4957469;28;92765;-82
2022/10/20 05:21:05;;;;;;;3.72;3.03;;;20.90;67.30;;;;;;4952627;28;92443;-82
2022/10/20 05:23:30;;;;;;;5.72;3.67;;;20.80;67.30;;;;;;4952205;28;94009;-81
2022/10/20 05:25:56;;;;;;;3.55;3.20;;;20.90;67.10;;;;;;4953932;28;93645;-82
2022/10/20 05:28:21;;;;;;;3.15;2.85;;;20.90;66.90;;;;;;4952475;28;92670;-81
2022/10/20 05:30:47;;;;;;;3.67;3.30;;;20.90;66.20;;;;;;4953741;28;92747;-81
2022/10/20 05:33:12;;;;;;;3.50;3.10;;;21.00;66.00;;;;;;4951393;28;94117;-82
2022/10/20 05:35:38;;;;;;;4.35;3.58;;;21.00;65.90;;;;;;4954075;28;94417;-82
2022/10/20 05:38:03;;;;;;;4.15;3.58;;;21.00;65.80;;;;;;4955392;28;92658;-81
2022/10/20 05:40:29;;;;;;;4.10;3.65;;;21.00;65.70;;;;;;4951246;28;91353;-81
2022/10/20 05:42:56;;;;;;;3.78;3.30;;;20.90;65.50;;;;;;4955304;28;93560;-81
2022/10/20 05:45:22;;;;;;;6.15;4.82;;;21.00;65.70;;;;;;4952250;28;92733;-81
2022/10/20 05:47:47;;;;;;;7.63;4.72;;;21.10;63.50;;;;;;4952381;28;93642;-80
2022/10/20 05:50:13;;;;;;;5.20;4.53;;;21.10;62.90;;;;;;4954991;28;92915;-80
2022/10/20 05:52:38;;;;;;;5.50;4.93;;;21.10;62.80;;;;;;4953454;28;92476;-80
2022/10/20 05:55:04;;;;;;;5.53;4.95;;;21.00;62.40;;;;;;4954383;28;94133;-80
2022/10/20 05:57:30;;;;;;;7.63;5.13;;;21.00;62.40;;;;;;4952843;28;92611;-80
2022/10/20 05:59:56;;;;;;;8.07;5.00;;;21.10;62.40;;;;;;4953021;28;92560;-81
2022/10/20 06:02:21;;;;;;;5.40;4.57;;;21.00;62.10;;;;;;4951784;28;93128;-80
2022/10/20 06:04:47;;;;;;;6.00;5.05;;;21.00;62.10;;;;;;4952998;28;92258;-81
2022/10/20 06:07:13;;;;;;;6.15;4.85;;;21.00;62.70;;;;;;4952727;28;92670;-81
2022/10/20 06:09:39;;;;;;;7.50;4.93;;;21.00;61.80;;;;;;4953074;28;92740;-81
2022/10/20 06:12:06;;;;;;;7.97;5.38;;;21.00;61.70;;;;;;4950757;28;94146;-81
2022/10/20 06:14:31;;;;;;;12.02;4.68;;;21.00;61.60;;;;;;4951541;28;94365;-81
2022/10/20 06:16:57;;;;;;;5.43;4.90;;;21.00;61.60;;;;;;4953041;28;92540;-81
2022/10/20 06:19:24;;;;;;;8.20;4.90;;;20.90;61.50;;;;;;4952511;28;92038;-80
2022/10/20 06:21:51;;;;;;;7.35;5.28;;;20.90;61.40;;;;;;4953666;28;92718;-80
2022/10/20 06:24:18;;;;;;;7.38;5.35;;;20.90;61.40;;;;;;4953493;28;95021;-80
2022/10/20 06:26:43;;;;;;;8.65;5.18;;;20.90;61.40;;;;;;4953897;28;92561;-81
2022/10/20 06:29:12;;;;;;;6.03;5.25;;;20.80;61.40;;;;;;4955597;28;91275;-80
2022/10/20 06:31:49;;;;;;;6.63;4.88;;;20.80;61.10;;;;;;4958627;28;93878;-81
2022/10/20 06:34:20;;;;;;;9.07;5.10;;;20.80;61.20;;;;;;4952310;28;93225;-81
2022/10/20 06:36:46;;;;;;;7.30;5.45;;;20.90;61.60;;;;;;4953806;28;93968;-81
2022/10/20 06:39:18;;;;;;;6.22;4.80;;;20.80;61.00;;;;;;4955482;28;92079;-81
2022/10/20 06:41:49;;;;;;;7.72;4.72;;;20.70;62.40;;;;;;4956451;28;94125;-81
2022/10/20 06:44:16;;;;;;;5.25;4.10;;;20.70;63.10;;;;;;4959726;28;92238;-81
2022/10/20 06:46:42;;;;;;;7.03;3.88;;;20.90;63.50;;;;;;4959123;28;92189;-80
2022/10/20 06:49:08;;;;;;;6.32;3.97;;;20.90;63.60;;;;;;4952754;28;92204;-81
2022/10/20 06:51:34;;;;;;;6.68;3.88;;;21.00;63.60;;;;;;4955969;28;92573;-80
2022/10/20 06:54:01;;;;;;;8.77;3.70;;;21.10;64.30;;;;;;4954380;28;93586;-80
2022/10/20 06:56:28;;;;;;;14.68;4.20;;;21.20;63.40;;;;;;4955740;28;92354;-81
2022/10/20 06:58:55;;;;;;;9.50;4.10;;;21.20;62.70;;;;;;4958221;28;92581;-81
2022/10/20 07:01:32;;;;;;;5.13;4.13;;;21.20;63.20;;;;;;4956117;28;93703;-80
2022/10/20 07:04:04;;;;;;;7.35;3.95;;;21.20;63.30;;;;;;4956998;28;94180;-82
2022/10/20 07:06:36;;;;;;;6.10;3.78;;;21.30;63.40;;;;;;4933864;28;92624;-82
2022/10/20 07:09:03;;;;;;;12.48;4.50;;;21.30;63.50;;;;;;4933319;28;93219;-81
2022/10/20 07:11:30;;;;;;;11.73;4.18;;;21.30;63.10;;;;;;4934543;28;93529;-81
2022/10/20 07:14:00;;;;;;;10.52;4.05;;;21.30;63.30;;;;;;4936181;28;93379;-82
2022/10/20 07:16:28;;;;;;;12.93;4.20;;;21.30;63.70;;;;;;4931625;28;92495;-82
2022/10/20 07:18:54;;;;;;;13.43;4.40;;;21.30;63.80;;;;;;4936428;28;91975;-82
2022/10/20 07:21:22;;;;;;;8.55;4.30;;;21.30;63.90;;;;;;4933410;28;94173;-82
2022/10/20 07:23:50;;;;;;;8.60;4.15;;;21.30;63.90;;;;;;4933549;28;93504;-81
2022/10/20 07:26:27;;;;;;;14.55;4.80;;;21.40;63.60;;;;;;4927914;28;94247;-81
2022/10/20 07:28:55;;;;;;;10.38;4.47;;;21.30;63.90;;;;;;4937250;28;92284;-81
2022/10/20 07:31:25;;;;;;;7.18;3.70;;;21.30;63.90;;;;;;4932954;28;93848;-81
2022/10/20 07:33:51;;;;;;;20.90;4.80;;;21.30;63.90;;;;;;4926246;28;94849;-82
2022/10/20 07:36:18;;;;;;;12.63;4.55;;;21.30;64.20;;;;;;4934020;28;92852;-81
2022/10/20 07:38:44;;;;;;;15.27;4.60;;;21.20;64.20;;;;;;4955482;28;92394;-81
2022/10/20 07:41:11;;;;;;;10.07;3.75;;;21.20;64.40;;;;;;4953460;28;93229;-81
2022/10/20 07:43:37;;;;;;;13.05;4.13;;;21.30;64.20;;;;;;4951830;28;92113;-81
2022/10/20 07:46:04;;;;;;;13.30;5.00;;;21.30;64.20;;;;;;4953630;28;92247;-81
2022/10/20 07:48:31;;;;;;;12.50;4.60;;;21.20;64.30;;;;;;4951873;28;92572;-82
2022/10/20 07:51:16;;;;;;;15.10;4.18;;;21.30;64.40;;;;;;4884515;28;94067;-82
2022/10/20 07:53:43;;;;;;;9.07;4.25;;;21.30;64.30;;;;;;4958341;28;94065;-81
2022/10/20 07:56:08;;;;;;;8.40;3.90;;;21.30;64.40;;;;;;4933427;28;92932;-81
2022/10/20 07:58:34;;;;;;;10.05;4.10;;;21.30;64.50;;;;;;4929837;28;92953;-81
2022/10/20 08:01:00;;;;;;;10.32;4.85;;;21.40;64.30;;;;;;4932181;28;92725;-81
2022/10/20 08:03:26;;;;;;;9.70;4.22;;;21.30;64.20;;;;;;4925266;28;92914;-81
2022/10/20 08:05:51;;;;;;;7.65;3.67;;;21.30;64.50;;;;;;4931392;28;92634;-81
2022/10/20 08:08:17;;;;;;;11.00;4.22;;;21.30;64.30;;;;;;4933381;28;91489;-82
2022/10/20 08:10:42;;;;;;;11.88;4.68;;;21.30;64.20;;;;;;4930874;28;92636;-82
2022/10/20 08:13:08;;;;;;;9.20;3.95;;;21.30;64.30;;;;;;4932867;28;93771;-81
2022/10/20 08:15:34;;;;;;;10.60;4.00;;;21.30;64.40;;;;;;4928751;28;93189;-81
2022/10/20 08:17:59;;;;;;;8.18;4.20;;;21.30;64.50;;;;;;4929630;28;92425;-81
2022/10/20 08:20:25;;;;;;;12.95;4.20;;;21.30;64.30;;;;;;4929339;28;93544;-81
2022/10/20 08:22:50;;;;;;;13.95;4.28;;;21.30;64.50;;;;;;4928658;28;94380;-81
2022/10/20 08:25:16;;;;;;;6.60;3.88;;;21.30;64.60;;;;;;4934066;28;92338;-81
2022/10/20 08:27:42;;;;;;;7.40;4.13;;;21.30;64.70;;;;;;4945357;28;92386;-81
2022/10/20 08:30:08;;;;;;;9.55;3.90;;;21.30;64.80;;;;;;4950170;28;94477;-81
2022/10/20 08:32:34;;;;;;;7.18;3.83;;;21.20;64.90;;;;;;4961734;28;93307;-80
2022/10/20 08:35:00;;;;;;;10.63;4.00;;;21.30;64.90;;;;;;4954467;28;92440;-81
2022/10/20 08:37:28;;;;;;;7.35;4.03;;;21.30;64.90;;;;;;4953389;28;93409;-81
2022/10/20 08:39:53;;;;;;;11.88;4.22;;;21.30;64.70;;;;;;4954061;28;94693;-81
2022/10/20 08:42:19;;;;;;;8.32;4.03;;;21.30;64.90;;;;;;4950672;28;95296;-81
2022/10/20 08:44:46;;;;;;;6.05;4.00;;;21.30;65.00;;;;;;4953237;28;92488;-81
2022/10/20 08:47:31;;;;;;;10.90;4.18;;;21.30;65.00;;;;;;4952508;28;93175;-81
2022/10/20 08:49:57;;;;;;;8.88;4.82;;;21.30;64.70;;;;;;4951585;28;93973;-81
2022/10/20 08:52:25;;;;;;;7.80;3.78;;;21.30;64.60;;;;;;4950271;28;92867;-81
2022/10/20 08:54:54;;;;;;;6.97;3.70;;;21.30;64.70;;;;;;4950118;28;92618;-80
2022/10/20 08:57:19;;;;;;;12.18;4.50;;;21.30;64.80;;;;;;4953947;28;91795;-81
2022/10/20 08:59:45;;;;;;;9.57;3.75;;;21.30;64.60;;;;;;4946434;28;92715;-81
2022/10/20 09:02:15;;;;;;;9.88;3.95;;;21.30;64.60;;;;;;4952349;28;93708;-80
2022/10/20 09:04:46;;;;;;;5.38;3.75;;;21.30;64.70;;;;;;4952157;28;93385;-81
2022/10/20 09:07:27;;;;;;;11.82;4.30;;;21.30;64.50;;;;;;4953396;28;92683;-82
2022/10/20 09:10:02;;;;;;;10.48;4.75;;;21.50;64.20;;;;;;4954463;28;97890;-81
2022/10/20 09:12:28;;;;;;;12.27;4.00;;;21.40;64.30;;;;;;4952198;28;93218;-81
2022/10/20 09:14:56;;;;;;;14.27;3.83;;;21.40;64.10;;;;;;4955502;28;92365;-81
2022/10/20 09:17:21;;;;;;;7.80;3.97;;;21.50;64.20;;;;;;4951516;28;92279;-81
2022/10/20 09:19:56;;;;;;;11.00;4.15;;;21.50;64.50;;;;;;4949507;28;93207;-81
2022/10/20 09:25:15;;;;;;;10.18;3.83;;;21.40;64.70;;;;;;4951685;28;92627;-81
2022/10/20 09:27:41;;;;;;;8.10;4.25;;;21.40;64.50;;;;;;4948744;28;93907;-81
2022/10/20 09:30:29;;;;;;;14.35;3.72;;;21.30;64.50;;;;;;4956699;28;94131;-81
2022/10/20 09:32:54;;;;;;;16.17;4.80;;;21.30;64.60;;;;;;4955126;28;93846;-82
2022/10/20 09:35:28;;;;;;;9.95;4.10;;;21.40;64.40;;;;;;4954040;28;92246;-81
2022/10/20 09:38:17;;;;;;;11.85;4.63;;;21.30;64.70;;;;;;4951973;28;92094;-81
2022/10/20 09:40:45;;;;;;;8.88;3.92;;;21.40;64.90;;;;;;4951103;28;96597;-81
2022/10/20 09:43:17;;;;;;;10.53;4.57;;;21.50;64.20;;;;;;4948752;28;93258;-81
2022/10/20 09:49:06;;;;;;;10.98;4.13;;;21.40;64.60;;;;;;4953264;28;91898;-82
2022/10/20 09:51:32;;;;;;;7.18;4.50;;;21.40;65.00;;;;;;4951463;28;93890;-83
2022/10/20 09:54:02;;;;;;;7.03;4.30;;;21.30;64.80;;;;;;4956831;28;93273;-82
2022/10/20 09:56:40;;;;;;;7.40;4.93;;;21.30;64.90;;;;;;4953860;28;94353;-82
2022/10/20 09:59:17;;;;;;;5.25;4.03;;;21.30;65.10;;;;;;4950950;28;92427;-82
2022/10/20 10:02:14;;;;;;;9.15;4.28;;;21.30;65.00;;;;;;4955445;28;92758;-82
2022/10/20 10:05:17;;;;;;;8.90;3.83;;;21.30;65.40;;;;;;4876590;28;94110;-83
2022/10/20 10:07:43;;;;;;;9.68;4.13;;;21.30;65.60;;;;;;4873566;28;92397;-82
2022/10/20 10:10:18;;;;;;;6.05;3.85;;;21.30;65.50;;;;;;4875092;28;92293;-81
2022/10/20 10:12:51;;;;;;;7.95;4.60;;;21.30;65.80;;;;;;4872778;28;93052;-82
2022/10/20 10:15:29;;;;;;;6.78;4.43;;;21.30;65.90;;;;;;4871961;28;93453;-82
2022/10/20 10:17:56;;;;;;;11.80;4.50;;;21.50;65.90;;;;;;4876140;28;92839;-82
2022/10/20 10:20:22;;;;;;;7.40;4.22;;;21.40;65.90;;;;;;4876776;28;92552;-81
2022/10/20 10:22:47;;;;;;;9.90;4.78;;;21.50;65.90;;;;;;4874248;28;94903;-82
2022/10/20 10:28:25;;;;;;;8.27;4.80;;;21.40;66.20;;;;;;4876796;28;92870;-81
2022/10/20 10:31:09;;;;;;;9.63;4.90;;;21.40;66.10;;;;;;4875025;28;93018;-82
2022/10/20 10:33:34;;;;;;;12.88;5.25;;;21.40;66.60;;;;;;4873567;28;94180;-81
2022/10/20 10:36:13;;;;;;;9.45;4.75;;;21.40;67.40;;;;;;4862456;28;92930;-83
2022/10/20 10:38:39;;;;;;;9.65;5.20;;;21.40;66.60;;;;;;4871969;28;92164;-82
2022/10/20 10:41:25;;;;;;;7.00;4.90;;;21.40;66.70;;;;;;4901638;28;92570;-81
2022/10/20 10:44:31;;;;;;;8.65;5.40;;;21.40;67.00;;;;;;4950556;28;94178;-81
2022/10/20 10:53:57;;;;;;;14.45;6.07;;;21.40;67.10;;;;;;4901408;28;92567;-86
2022/10/20 10:56:45;;;;;;;13.05;6.15;;;21.50;67.00;;;;;;4898928;28;93607;-87
2022/10/20 10:59:21;;;;;;;12.05;5.95;;;21.50;66.30;;;;;;4884329;28;94822;-87
2022/10/20 11:02:11;;;;;;;10.82;6.00;;;21.50;66.40;;;;;;4900268;28;92156;-86
2022/10/20 11:04:55;;;;;;;11.18;6.10;;;21.30;66.60;;;;;;4897905;28;92116;-85
2022/10/20 11:07:24;;;;;;;13.32;6.47;;;21.40;66.90;;;;;;4884282;28;94685;-84
2022/10/20 11:10:21;;;;;;;15.53;6.10;;;21.40;66.90;;;;;;4900846;28;93561;-86
2022/10/20 11:13:16;;;;;;;12.95;6.53;;;21.40;66.90;;;;;;4898913;28;92505;-84
2022/10/20 11:16:14;;;;;;;14.52;7.07;;;21.50;66.90;;;;;;4859786;28;93587;-87
2022/10/20 11:18:58;;;;;;;11.65;7.22;;;21.30;67.10;;;;;;4860835;28;94267;-86
2022/10/20 11:21:54;;;;;;;12.30;7.00;;;21.30;68.90;;;;;;4861453;28;94911;-85
2022/10/20 11:24:31;;;;;;;14.07;7.68;;;21.30;69.00;;;;;;4888021;28;92477;-86
2022/10/20 11:27:19;;;;;;;12.77;7.50;;;21.20;69.90;;;;;;4901749;28;92807;-84
2022/10/20 11:29:56;;;;;;;14.55;8.00;;;21.30;71.30;;;;;;4901313;28;95531;-85
2022/10/20 11:32:50;;;;;;;15.82;7.65;;;21.20;71.80;;;;;;4886255;28;96290;-86
2022/10/20 11:35:23;;;;;;;13.57;7.45;;;21.20;71.90;;;;;;4902573;28;92223;-86
2022/10/20 11:38:23;;;;;;;14.68;7.38;;;21.30;70.80;;;;;;4904336;28;91783;-84
2022/10/20 11:41:04;;;;;;;13.65;7.18;;;21.20;70.70;;;;;;4866755;28;94131;-85
2022/10/20 11:43:45;;;;;;;10.60;6.78;;;21.20;70.50;;;;;;4864656;28;93320;-85
2022/10/20 11:46:19;;;;;;;12.07;7.10;;;21.20;70.20;;;;;;4866654;28;93515;-85
2022/10/20 11:48:49;;;;;;;11.82;6.85;;;21.20;69.90;;;;;;4865447;28;92361;-86
2022/10/20 11:51:30;;;;;;;10.25;6.63;;;21.30;70.30;;;;;;4864491;28;93808;-86
2022/10/20 11:54:02;;;;;;;11.70;7.13;;;21.20;70.20;;;;;;4894092;28;93485;-88
2022/10/20 11:56:41;;;;;;;10.48;6.55;;;21.20;70.40;;;;;;4895154;28;92594;-83
2022/10/20 11:59:39;;;;;;;8.13;5.93;;;21.20;70.00;;;;;;4894912;28;92653;-87
2022/10/20 12:02:22;;;;;;;12.45;5.88;;;21.30;69.70;;;;;;4894686;28;93669;-89
2022/10/20 12:05:15;;;;;;;8.68;6.15;;;21.30;69.70;;;;;;4894571;28;91859;-87
2022/10/20 12:08:18;;;;;;;12.38;6.55;;;21.30;70.10;;;;;;4884126;28;92147;-88
2022/10/20 12:11:12;;;;;;;8.85;5.78;;;21.20;70.00;;;;;;4893757;28;92134;-86
2022/10/20 12:13:43;;;;;;;9.23;5.90;;;21.20;70.40;;;;;;4893203;28;97604;-86
2022/10/20 12:16:09;;;;;;;15.88;6.40;;;21.30;70.50;;;;;;4893683;28;94414;-86
2022/10/20 12:18:36;;;;;;;15.00;5.80;;;21.30;70.50;;;;;;4943071;28;92495;-85
2022/10/20 12:21:06;;;;;;;11.90;5.72;;;21.30;70.50;;;;;;4961967;28;92950;-86
2022/10/20 12:23:44;;;;;;;12.48;5.70;;;21.20;71.40;;;;;;4963220;28;93390;-86
2022/10/20 12:26:28;;;;;;;15.82;7.15;;;21.30;71.30;;;;;;4962475;28;93367;-86
2022/10/20 12:28:56;;;;;;;11.07;6.60;;;21.40;71.90;;;;;;4964896;28;92277;-85
2022/10/20 12:31:22;;;;;;;12.67;6.10;;;21.40;77.30;;;;;;4965344;28;91813;-86
2022/10/20 12:33:48;;;;;;;16.58;8.73;;;21.40;73.00;;;;;;4963278;28;93697;-85
2022/10/20 12:36:13;;;;;;;8.98;6.68;;;21.50;72.40;;;;;;4964253;28;93824;-86
2022/10/20 12:38:40;;;;;;;15.95;6.80;;;21.60;72.00;;;;;;4964182;28;93558;-86
2022/10/20 12:41:23;;;;;;;18.25;6.22;;;21.50;71.70;;;;;;4963032;28;92353;-87
2022/10/20 12:43:58;;;;;;;16.13;6.30;;;21.50;71.30;;;;;;4963955;28;94672;-86
2022/10/20 12:46:30;;;;;;;17.30;7.47;;;21.40;71.40;;;;;;4964470;28;93915;-87
2022/10/20 12:49:01;;;;;;;14.43;7.38;;;21.40;71.70;;;;;;4964138;28;92336;-86
2022/10/20 12:51:35;;;;;;;21.38;8.05;;;21.50;71.90;;;;;;4962724;28;93079;-87
2022/10/20 12:54:24;;;;;;;22.15;8.32;;;21.50;71.80;;;;;;4963611;28;93731;-89
2022/10/20 12:56:54;;;;;;;17.55;7.68;;;21.50;72.00;;;;;;4964774;28;93260;-87
2022/10/20 12:59:33;;;;;;;;;;;21.40;71.90;;;;;;4962325;28;92223;-88
2022/10/20 13:02:07;;;;;;;11.85;6.53;;;21.40;71.90;;;;;;4965979;28;92776;-87
2022/10/20 13:04:58;;;;;;;14.77;6.63;;;21.30;71.60;;;;;;4962981;28;94637;-87
2022/10/20 13:07:48;;;;;;;14.75;6.90;;;21.30;72.10;;;;;;4963191;28;95269;-89
2022/10/20 13:10:25;;;;;;;20.23;8.35;;;21.30;72.00;;;;;;4963892;28;92469;-88
2022/10/20 13:13:00;;;;;;;27.52;6.35;;;21.30;72.50;;;;;;4963672;28;92100;-89
2022/10/20 13:15:29;;;;;;;25.27;6.85;;;21.40;72.20;;;;;;4963938;28;93737;-88
2022/10/20 13:17:59;;;;;;;20.15;6.40;;;21.50;71.80;;;;;;4963484;28;93208;-88
2022/10/20 13:20:36;;;;;;;18.42;6.82;;;21.50;72.00;;;;;;4962321;28;91965;-91